Time;durP1;ratioP1;P1;durP2;ratioP2;P2;SDS_P1;SDS_P2;PMS_P1;PMS_P2;Temp;Humidity;BMP_temperature;BMP_pressure;BME280_temperature;BME280_humidity;BME280_pressure;Samples;Min_cycle;Max_cycle;Signal;HPM_P1;HPM_P2
2024/04/07 00:02:09;;;;;;;;;;;19.40;99.90;;;;;;4992475;28;19917;-72
2024/04/07 00:04:34;;;;;;;;;;;19.40;99.90;;;;;;4990139;28;20008;-73
2024/04/07 00:07:01;;;;;;;;;;;19.50;99.90;;;;;;4990662;28;19909;-72
2024/04/07 00:09:27;;;;;;;;;;;19.50;99.90;;;;;;4990243;28;19914;-74
2024/04/07 00:11:54;;;;;;;;;;;19.60;99.90;;;;;;4990014;28;19979;-72
2024/04/07 00:14:19;;;;;;;;;;;19.50;99.90;;;;;;4989042;28;19910;-72
2024/04/07 00:16:45;;;;;;;;;;;19.30;99.90;;;;;;4992223;28;19917;-72
2024/04/07 00:19:10;;;;;;;;;;;19.60;99.90;;;;;;4989568;28;20007;-72
2024/04/07 00:21:36;;;;;;;;;;;19.80;99.90;;;;;;4990310;28;20002;-72
2024/04/07 00:24:02;;;;;;;;;;;19.60;99.90;;;;;;4988904;28;20008;-71
2024/04/07 00:26:27;;;;;;;;;;;19.50;99.90;;;;;;5005548;28;19918;-72
2024/04/07 00:28:53;;;;;;;;;;;19.40;99.90;;;;;;5007387;28;19909;-72
2024/04/07 00:31:18;;;;;;;;;;;19.20;99.90;;;;;;5008270;28;19921;-71
2024/04/07 00:33:44;;;;;;;;;;;19.00;99.90;;;;;;5009778;28;20392;-72
2024/04/07 00:36:09;;;;;;;;;;;19.00;99.90;;;;;;5004108;28;19937;-72
2024/04/07 00:38:35;;;;;;;;;;;19.00;99.90;;;;;;5009014;28;19916;-72
2024/04/07 00:41:01;;;;;;;;;;;19.00;99.90;;;;;;5008696;28;19922;-72
2024/04/07 00:43:27;;;;;;;;;;;19.00;99.90;;;;;;5011757;28;19980;-72
2024/04/07 00:45:56;;;;;;;;;;;18.90;99.90;;;;;;5011186;28;19992;-72
2024/04/07 00:48:22;;;;;;;;;;;19.00;99.90;;;;;;5012514;28;19917;-71
2024/04/07 00:50:49;;;;;;;;;;;19.10;99.90;;;;;;5010221;28;20385;-73
2024/04/07 00:53:15;;;;;;;;;;;19.00;99.90;;;;;;5011649;28;19924;-73
2024/04/07 00:55:41;;;;;;;;;;;19.00;99.90;;;;;;5007561;28;19914;-71
2024/04/07 00:58:10;;;;;;;;;;;18.90;99.90;;;;;;5010361;28;20004;-72
2024/04/07 01:00:35;;;;;;;;;;;18.90;99.90;;;;;;5007368;28;19914;-72
2024/04/07 01:03:01;;;;;;;;;;;18.90;99.90;;;;;;4994957;28;19956;-73
2024/04/07 01:05:26;;;;;;;;;;;18.90;99.90;;;;;;5001220;28;19917;-72
2024/04/07 01:07:54;;;;;;;;;;;18.90;99.90;;;;;;5010824;28;19916;-73
2024/04/07 01:10:20;;;;;;;;;;;18.80;99.90;;;;;;5009500;28;19910;-73
2024/04/07 01:12:52;;;;;;;;;;;18.90;99.90;;;;;;5002671;28;19939;-73
2024/04/07 01:15:18;;;;;;;;;;;18.80;99.90;;;;;;5010328;28;19962;-73
2024/04/07 01:17:44;;;;;;;;;;;19.00;99.90;;;;;;5010683;28;19914;-73
2024/04/07 01:20:10;;;;;;;;;;;18.90;99.90;;;;;;5008137;28;20372;-74
2024/04/07 01:22:35;;;;;;;;;;;18.80;99.90;;;;;;5009679;28;19916;-73
2024/04/07 01:25:01;;;;;;;;;;;18.80;99.90;;;;;;5010367;28;19918;-73
2024/04/07 01:27:26;;;;;;;;;;;18.60;99.90;;;;;;5007464;28;19926;-72
2024/04/07 01:29:52;;;;;;;;;;;18.50;99.90;;;;;;5006770;28;20390;-73
2024/04/07 01:32:17;;;;;;;;;;;18.40;99.90;;;;;;5010900;28;19910;-72
2024/04/07 01:34:43;;;;;;;;;;;18.40;99.90;;;;;;5008702;28;19913;-72
2024/04/07 01:37:08;;;;;;;;;;;18.40;99.90;;;;;;5015481;28;19910;-72
2024/04/07 01:39:34;;;;;;;;;;;18.30;99.90;;;;;;5014680;28;20329;-72
2024/04/07 01:41:59;;;;;;;;;;;18.30;99.90;;;;;;5011664;28;19913;-73
2024/04/07 01:44:25;;;;;;;;;;;18.40;99.90;;;;;;5003992;28;19973;-72
2024/04/07 01:46:50;;;;;;;;;;;18.50;99.90;;;;;;5011107;28;19914;-73
2024/04/07 01:49:16;;;;;;;;;;;18.60;99.90;;;;;;5009838;28;19920;-72
2024/04/07 01:51:41;;;;;;;;;;;18.60;99.90;;;;;;5010388;28;20008;-72
2024/04/07 01:54:07;;;;;;;;;;;18.50;99.90;;;;;;5007640;28;20318;-73
2024/04/07 01:56:32;;;;;;;;;;;18.40;99.90;;;;;;5010107;28;19913;-73
2024/04/07 01:58:58;;;;;;;;;;;18.40;99.90;;;;;;5007201;28;20384;-73
2024/04/07 02:01:23;;;;;;;;;;;18.40;99.90;;;;;;4998153;28;19955;-72
2024/04/07 02:03:49;;;;;;;;;;;18.40;99.90;;;;;;4990653;28;19922;-72
2024/04/07 02:06:14;;;;;;;;;;;18.40;99.90;;;;;;4991761;28;19910;-73
2024/04/07 02:08:39;;;;;;;;;;;18.40;99.90;;;;;;4992120;28;19942;-72
2024/04/07 02:11:05;;;;;;;;;;;18.40;99.90;;;;;;4991577;28;20304;-73
2024/04/07 02:13:30;;;;;;;;;;;18.50;99.90;;;;;;4993547;28;19910;-72
2024/04/07 02:15:59;;;;;;;;;;;18.60;99.90;;;;;;4992566;28;19921;-72
2024/04/07 02:18:26;;;;;;;;;;;18.60;99.90;;;;;;4994725;28;19949;-72
2024/04/07 02:20:51;;;;;;;;;;;18.50;99.90;;;;;;5009843;28;19910;-72
2024/04/07 02:23:17;;;;;;;;;;;18.60;99.90;;;;;;5009449;28;20421;-73
2024/04/07 02:25:43;;;;;;;;;;;18.80;99.90;;;;;;5009773;28;19933;-72
2024/04/07 02:28:08;;;;;;;;;;;18.70;99.90;;;;;;5006631;28;19953;-73
2024/04/07 02:30:36;;;;;;;;;;;18.70;99.90;;;;;;5001774;28;19910;-73
2024/04/07 02:33:04;;;;;;;;;;;18.70;99.90;;;;;;4996896;28;19909;-73
2024/04/07 02:35:32;;;;;;;;;;;18.60;99.90;;;;;;5002032;28;19913;-73
2024/04/07 02:37:58;;;;;;;;;;;18.60;99.90;;;;;;5009336;28;19940;-72
2024/04/07 02:40:24;;;;;;;;;;;18.60;99.90;;;;;;4999880;28;20334;-72
2024/04/07 02:42:52;;;;;;;;;;;18.50;99.90;;;;;;4995568;28;19920;-73
2024/04/07 02:48:05;;;;;;;;;;;18.50;99.90;;;;;;4992318;28;19920;-72
2024/04/07 02:50:31;;;;;;;;;;;18.40;99.90;;;;;;4989824;28;20327;-73
2024/04/07 02:52:57;;;;;;;;;;;18.50;99.90;;;;;;4990284;28;19914;-72
2024/04/07 02:55:22;;;;;;;;;;;18.60;99.90;;;;;;4990691;28;19971;-72
2024/04/07 02:57:48;;;;;;;;;;;18.70;99.90;;;;;;4991618;28;20334;-72
2024/04/07 03:00:13;;;;;;;;;;;18.70;99.90;;;;;;4992642;28;19910;-72
2024/04/07 03:02:43;;;;;;;;;;;18.70;99.90;;;;;;4990421;28;19929;-73
2024/04/07 03:05:09;;;;;;;;;;;18.60;99.90;;;;;;4991586;28;19918;-72
2024/04/07 03:07:35;;;;;;;;;;;18.60;99.90;;;;;;4991879;28;19917;-72
2024/04/07 03:10:00;;;;;;;;;;;18.60;99.90;;;;;;4989256;28;19910;-74
2024/04/07 03:12:27;;;;;;;;;;;18.60;99.90;;;;;;4990011;28;19941;-72
2024/04/07 03:14:53;;;;;;;;;;;18.50;99.90;;;;;;4991194;28;19996;-73
2024/04/07 03:17:18;;;;;;;;;;;18.40;99.90;;;;;;4990096;28;19948;-72
2024/04/07 03:19:44;;;;;;;;;;;18.40;99.90;;;;;;4990919;28;19910;-72
2024/04/07 03:22:09;;;;;;;;;;;18.40;99.90;;;;;;4990610;28;20314;-70
2024/04/07 03:24:35;;;;;;;;;;;18.30;99.90;;;;;;5003941;28;20012;-72
2024/04/07 03:27:00;;;;;;;;;;;18.20;99.90;;;;;;5002185;28;20289;-72
2024/04/07 03:29:26;;;;;;;;;;;18.20;99.90;;;;;;5007458;28;20380;-70
2024/04/07 03:31:51;;;;;;;;;;;18.10;99.90;;;;;;5010098;28;19910;-71
2024/04/07 03:34:17;;;;;;;;;;;18.10;99.90;;;;;;5010132;28;19914;-72
2024/04/07 03:36:42;;;;;;;;;;;18.00;99.90;;;;;;5010850;28;19952;-73
2024/04/07 03:39:08;;;;;;;;;;;18.00;99.90;;;;;;5002370;28;19910;-72
2024/04/07 03:41:34;;;;;;;;;;;18.10;99.90;;;;;;4996707;28;19917;-72
2024/04/07 03:43:59;;;;;;;;;;;18.00;99.90;;;;;;5002974;28;20373;-72
2024/04/07 03:46:25;;;;;;;;;;;17.90;99.90;;;;;;4989965;28;19913;-72
2024/04/07 03:48:53;;;;;;;;;;;17.80;99.90;;;;;;5002894;28;20395;-72
2024/04/07 03:51:19;;;;;;;;;;;17.90;99.90;;;;;;4993254;28;20434;-72
2024/04/07 03:53:45;;;;;;;;;;;18.00;99.90;;;;;;5003283;28;19952;-73
2024/04/07 03:56:10;;;;;;;;;;;17.90;99.90;;;;;;5008666;28;19910;-73
2024/04/07 03:58:37;;;;;;;;;;;18.00;99.90;;;;;;4996994;28;19914;-73
2024/04/07 04:01:03;;;;;;;;;;;18.00;99.90;;;;;;4994946;28;20368;-73
2024/04/07 04:03:28;;;;;;;;;;;18.00;99.90;;;;;;4990061;28;19950;-71
2024/04/07 04:05:54;;;;;;;;;;;17.90;99.90;;;;;;4994233;28;20297;-73
2024/04/07 04:08:19;;;;;;;;;;;17.90;99.90;;;;;;5004688;28;19918;-73
2024/04/07 04:10:45;;;;;;;;;;;17.80;99.90;;;;;;4988828;28;19957;-73
2024/04/07 04:13:10;;;;;;;;;;;17.80;99.90;;;;;;5002380;28;19933;-73
2024/04/07 04:15:36;;;;;;;;;;;17.80;99.90;;;;;;4999930;28;19914;-71
2024/04/07 04:18:05;;;;;;;;;;;17.90;99.90;;;;;;4988979;28;19914;-73
2024/04/07 04:20:31;;;;;;;;;;;17.80;99.90;;;;;;4988641;28;19968;-73
2024/04/07 04:22:57;;;;;;;;;;;17.80;99.90;;;;;;4988968;28;19933;-73
2024/04/07 04:25:22;;;;;;;;;;;17.80;99.90;;;;;;4989250;28;19964;-71
2024/04/07 04:27:48;;;;;;;;;;;17.80;99.90;;;;;;4988931;28;19929;-72
2024/04/07 04:30:13;;;;;;;;;;;17.80;99.90;;;;;;4996193;28;20329;-72
2024/04/07 04:32:39;;;;;;;;;;;18.00;99.90;;;;;;4999881;28;19920;-72
2024/04/07 04:35:05;;;;;;;;;;;18.00;99.90;;;;;;5008299;28;19950;-73
2024/04/07 04:37:31;;;;;;;;;;;18.00;99.90;;;;;;4995598;28;19996;-73
2024/04/07 04:39:58;;;;;;;;;;;17.90;99.90;;;;;;5006978;28;19937;-71
2024/04/07 04:42:24;;;;;;;;;;;17.90;99.90;;;;;;5008458;28;19909;-72
2024/04/07 04:44:50;;;;;;;;;;;17.90;99.90;;;;;;5008905;28;20008;-72
2024/04/07 04:47:15;;;;;;;;;;;17.90;99.90;;;;;;5007223;28;19956;-72
2024/04/07 04:49:41;;;;;;;;;;;17.90;99.90;;;;;;5000559;28;19917;-72
2024/04/07 04:52:06;;;;;;;;;;;17.80;99.90;;;;;;4997859;28;19937;-72
2024/04/07 04:54:32;;;;;;;;;;;17.70;99.90;;;;;;5007953;28;20008;-73
2024/04/07 04:56:57;;;;;;;;;;;17.60;99.90;;;;;;4994100;28;20005;-71
2024/04/07 04:59:23;;;;;;;;;;;17.60;99.90;;;;;;5007079;28;19931;-71
2024/04/07 05:01:48;;;;;;;;;;;17.70;99.90;;;;;;4995718;28;19910;-71
2024/04/07 05:04:14;;;;;;;;;;;17.70;99.90;;;;;;4989202;28;19917;-72
2024/04/07 05:06:40;;;;;;;;;;;17.60;99.90;;;;;;4987993;28;19963;-71
2024/04/07 05:09:05;;;;;;;;;;;17.50;99.90;;;;;;4975452;28;19910;-72
2024/04/07 05:11:31;;;;;;;;;;;17.50;99.90;;;;;;4988290;28;19924;-71
2024/04/07 05:13:56;;;;;;;;;;;17.50;99.90;;;;;;4995036;28;19924;-72
2024/04/07 05:16:24;;;;;;;;;;;17.40;99.90;;;;;;4995431;28;20199;-72
2024/04/07 05:18:50;;;;;;;;;;;17.40;99.90;;;;;;4988882;28;19917;-72
2024/04/07 05:21:15;;;;;;;;;;;17.30;99.90;;;;;;4988996;28;19910;-73
2024/04/07 05:23:42;;;;;;;;;;;17.40;99.90;;;;;;4988337;28;19918;-73
2024/04/07 05:26:12;;;;;;;;;;;17.30;99.90;;;;;;4988534;28;19916;-73
2024/04/07 05:28:38;;;;;;;;;;;17.30;99.90;;;;;;4990884;28;19959;-72
2024/04/07 05:31:04;;;;;;;;;;;17.40;99.90;;;;;;4992120;28;19914;-72
2024/04/07 05:33:30;;;;;;;;;;;17.60;99.90;;;;;;4992433;28;19914;-72
2024/04/07 05:35:56;;;;;;;;;;;17.70;99.90;;;;;;4992123;28;19910;-72
2024/04/07 05:38:21;;;;;;;;;;;17.70;99.90;;;;;;4992535;28;19948;-73
2024/04/07 05:40:53;;;;;;;;;;;17.70;99.90;;;;;;4992299;28;20377;-73
2024/04/07 05:43:19;;;;;;;;;;;17.50;99.90;;;;;;4992414;28;19909;-72
2024/04/07 05:45:44;;;;;;;;;;;17.60;99.90;;;;;;4993556;28;19910;-72
2024/04/07 05:48:10;;;;;;;;;;;17.50;99.90;;;;;;4993020;28;20273;-73
2024/04/07 05:50:36;;;;;;;;;;;17.40;99.90;;;;;;4993318;28;19917;-73
2024/04/07 05:53:01;;;;;;;;;;;17.40;99.90;;;;;;4992882;28;19910;-72
2024/04/07 05:55:27;;;;;;;;;;;17.70;99.90;;;;;;4993498;28;19910;-72
2024/04/07 05:57:52;;;;;;;;;;;17.90;99.90;;;;;;4992858;28;19993;-73
2024/04/07 06:00:18;;;;;;;;;;;17.90;99.90;;;;;;4992498;28;19921;-73
2024/04/07 06:02:44;;;;;;;;;;;17.90;99.90;;;;;;4999525;28;19931;-72
2024/04/07 06:05:09;;;;;;;;;;;17.80;99.90;;;;;;5006922;28;20024;-71
2024/04/07 06:07:34;;;;;;;;;;;17.80;99.90;;;;;;5010107;28;19914;-72
2024/04/07 06:10:00;;;;;;;;;;;17.90;99.90;;;;;;5010185;28;19917;-73
2024/04/07 06:12:25;;;;;;;;;;;18.20;99.90;;;;;;4992045;28;20323;-72
2024/04/07 06:14:51;;;;;;;;;;;18.40;99.90;;;;;;5004390;28;19945;-72
2024/04/07 06:17:16;;;;;;;;;;;18.70;99.90;;;;;;5010325;28;19979;-73
2024/04/07 06:19:42;;;;;;;;;;;18.90;99.90;;;;;;4996959;28;19921;-73
2024/04/07 06:22:08;;;;;;;;;;;19.10;99.90;;;;;;5005300;22;19933;-70
2024/04/07 06:24:33;;;;;;;;;;;19.10;99.90;;;;;;4972199;28;19915;-71
2024/04/07 06:26:59;;;;;;;;;;;19.30;99.90;;;;;;5007610;28;19913;-71
2024/04/07 06:29:24;;;;;;;;;;;19.60;99.90;;;;;;5009809;28;19910;-71
2024/04/07 06:31:50;;;;;;;;;;;20.00;99.90;;;;;;5010797;28;19917;-71
2024/04/07 06:34:15;;;;;;;;;;;20.40;99.90;;;;;;5008944;28;19996;-71
2024/04/07 06:36:41;;;;;;;;;;;20.50;99.90;;;;;;5007023;28;20003;-71
2024/04/07 06:39:07;;;;;;;;;;;20.30;99.90;;;;;;5003199;28;20404;-70
2024/04/07 06:41:34;;;;;;;;;;;20.10;99.90;;;;;;5010599;28;19914;-71
2024/04/07 06:44:03;;;;;;;;;;;20.00;99.90;;;;;;5008281;28;19913;-71
2024/04/07 06:46:29;;;;;;;;;;;19.90;99.90;;;;;;4997990;28;19971;-71
2024/04/07 06:48:54;;;;;;;;;;;19.90;99.90;;;;;;4995276;28;19914;-71
2024/04/07 06:51:20;;;;;;;;;;;19.80;99.90;;;;;;4999446;28;19910;-71
2024/04/07 06:53:45;;;;;;;;;;;19.90;99.90;;;;;;4998438;28;20403;-71
2024/04/07 06:56:11;;;;;;;;;;;19.90;99.90;;;;;;5000780;28;19913;-71
2024/04/07 06:58:37;;;;;;;;;;;20.00;99.90;;;;;;4997371;28;19945;-71
2024/04/07 07:01:02;;;;;;;;;;;19.90;99.90;;;;;;5001238;28;19913;-70
2024/04/07 07:03:28;;;;;;;;;;;19.80;99.90;;;;;;5010733;28;20355;-70
2024/04/07 07:05:54;;;;;;;;;;;19.80;99.90;;;;;;4996772;28;20296;-71
2024/04/07 07:08:19;;;;;;;;;;;19.70;99.90;;;;;;4989362;28;19910;-70
2024/04/07 07:10:59;;;;;;;;;;;19.50;99.90;;;;;;4993565;28;19914;-71
2024/04/07 07:13:25;;;;;;;;;;;19.50;99.90;;;;;;4994652;28;19910;-69
2024/04/07 07:15:50;;;;;;;;;;;19.60;99.90;;;;;;4994713;28;20006;-70
2024/04/07 07:18:16;;;;;;;;;;;19.70;99.90;;;;;;5004150;28;19927;-73
2024/04/07 07:20:41;;;;;;;;;;;19.90;99.90;;;;;;5004597;28;19935;-73
2024/04/07 07:23:07;;;;;;;;;;;20.20;99.90;;;;;;5005278;28;20000;-72
2024/04/07 07:25:32;;;;;;;;;;;20.40;99.90;;;;;;5004293;28;19928;-72
2024/04/07 07:27:58;;;;;;;;;;;20.50;99.90;;;;;;5005271;28;19910;-72
2024/04/07 07:30:23;;;;;;;;;;;20.60;99.90;;;;;;5004047;28;20008;-73
2024/04/07 07:32:50;;;;;;;;;;;20.70;99.90;;;;;;5003269;28;19909;-72
2024/04/07 07:35:16;;;;;;;;;;;20.80;99.90;;;;;;5004876;28;20325;-72
2024/04/07 07:37:41;;;;;;;;;;;21.00;99.90;;;;;;5005351;28;19920;-71
2024/04/07 07:40:07;;;;;;;;;;;21.20;99.90;;;;;;5004232;28;19990;-72
2024/04/07 07:42:33;;;;;;;;;;;21.30;99.90;;;;;;5005179;28;19917;-71
2024/04/07 07:44:58;;;;;;;;;;;21.20;99.90;;;;;;4994661;28;19917;-72
2024/04/07 07:47:23;;;;;;;;;;;21.10;99.90;;;;;;5005657;28;20474;-72
2024/04/07 07:49:49;;;;;;;;;;;21.00;99.90;;;;;;4994089;28;19910;-71
2024/04/07 07:52:14;;;;;;;;;;;21.00;99.90;;;;;;5004572;28;20395;-72
2024/04/07 07:54:40;;;;;;;;;;;21.30;99.90;;;;;;5004353;28;20365;-72
2024/04/07 07:57:05;;;;;;;;;;;22.10;99.90;;;;;;5006074;28;19916;-72
2024/04/07 07:59:31;;;;;;;;;;;22.60;99.60;;;;;;4994882;28;19920;-71
2024/04/07 08:01:56;;;;;;;;;;;22.40;99.60;;;;;;4995273;28;19910;-72
2024/04/07 08:04:22;;;;;;;;;;;22.20;99.80;;;;;;5007902;28;20384;-72
2024/04/07 08:06:47;;;;;;;;;;;22.00;99.90;;;;;;4990017;28;19914;-72
2024/04/07 08:09:13;;;;;;;;;;;21.70;99.90;;;;;;5008720;28;19952;-72
2024/04/07 08:11:38;;;;;;;;;;;21.60;99.90;;;;;;5006851;28;19913;-72
2024/04/07 08:14:04;;;;;;;;;;;21.70;99.90;;;;;;5008488;28;19992;-73
2024/04/07 08:16:29;;;;;;;;;;;21.90;99.90;;;;;;5007775;28;19910;-73
2024/04/07 08:18:55;;;;;;;;;;;22.50;99.90;;;;;;4995877;28;19917;-72
2024/04/07 08:21:20;;;;;;;;;;;22.90;98.80;;;;;;5007568;28;20406;-71
2024/04/07 08:23:47;;;;;;;;;;;22.80;98.60;;;;;;5008463;28;19918;-72
2024/04/07 08:26:13;;;;;;;;;;;22.40;99.60;;;;;;5007534;28;19921;-71
2024/04/07 08:28:38;;;;;;;;;;;22.00;99.80;;;;;;5008233;28;19913;-73
2024/04/07 08:31:04;;;;;;;;;;;21.80;99.90;;;;;;5007702;28;19909;-72
2024/04/07 08:33:29;;;;;;;;;;;21.70;99.90;;;;;;5008454;28;19915;-72
2024/04/07 08:35:55;;;;;;;;;;;21.60;99.90;;;;;;4994566;28;19921;-71
2024/04/07 08:38:20;;;;;;;;;;;21.50;99.90;;;;;;5007289;28;20324;-73
2024/04/07 08:40:47;;;;;;;;;;;21.30;99.90;;;;;;5006085;28;19953;-72
2024/04/07 08:43:12;;;;;;;;;;;21.20;99.90;;;;;;5008735;28;19917;-72
2024/04/07 08:45:39;;;;;;;;;;;21.10;99.90;;;;;;5006705;28;19914;-70
2024/04/07 08:48:05;;;;;;;;;;;21.20;99.90;;;;;;5007704;28;19914;-71
2024/04/07 08:50:31;;;;;;;;;;;21.10;99.90;;;;;;4994589;28;20367;-70
2024/04/07 08:52:57;;;;;;;;;;;21.00;99.90;;;;;;4999735;28;20008;-71
2024/04/07 08:55:23;;;;;;;;;;;20.70;99.90;;;;;;4987647;28;19920;-71
2024/04/07 08:57:49;;;;;;;;;;;20.70;99.90;;;;;;4987881;28;19914;-70
2024/04/07 09:00:15;;;;;;;;;;;20.50;99.90;;;;;;4989410;28;19913;-70
2024/04/07 09:02:41;;;;;;;;;;;20.40;99.90;;;;;;4999388;28;19984;-71
2024/04/07 09:05:06;;;;;;;;;;;20.60;99.90;;;;;;5011208;28;19918;-70
2024/04/07 09:07:32;;;;;;;;;;;20.60;99.90;;;;;;5000896;28;19921;-71
2024/04/07 09:09:57;;;;;;;;;;;20.50;99.90;;;;;;5011056;28;19917;-70
2024/04/07 09:12:23;;;;;;;;;;;20.60;99.90;;;;;;5010673;28;20573;-70
2024/04/07 09:14:49;;;;;;;;;;;20.70;99.90;;;;;;5011053;28;19910;-70
2024/04/07 09:17:14;;;;;;;;;;;20.80;99.90;;;;;;5011917;28;20353;-71
2024/04/07 09:19:40;;;;;;;;;;;20.80;99.90;;;;;;4993492;28;19943;-71
2024/04/07 09:22:06;;;;;;;;;;;20.90;99.90;;;;;;5012081;28;19918;-70
2024/04/07 09:24:32;;;;;;;;;;;21.10;99.90;;;;;;5006086;28;19921;-69
2024/04/07 09:26:59;;;;;;;;;;;21.20;99.90;;;;;;4997912;28;19910;-70
2024/04/07 09:29:27;;;;;;;;;;;21.20;99.90;;;;;;5011646;28;19914;-72
2024/04/07 09:31:52;;;;;;;;;;;21.40;99.90;;;;;;5012945;28;19913;-72
2024/04/07 09:34:18;;;;;;;;;;;21.40;99.90;;;;;;5009636;28;19917;-72
2024/04/07 09:36:43;;;;;;;;;;;21.40;99.90;;;;;;5009730;28;19909;-72
2024/04/07 09:39:10;;;;;;;;;;;21.70;99.90;;;;;;5000264;28;19966;-71
2024/04/07 09:41:36;;;;;;;;;;;22.10;99.90;;;;;;5011314;28;19917;-70
2024/04/07 09:44:04;;;;;;;;;;;22.60;99.90;;;;;;5009949;28;19929;-70
2024/04/07 09:46:32;;;;;;;;;;;22.80;99.30;;;;;;5011085;28;19913;-71
2024/04/07 09:48:58;;;;;;;;;;;22.90;99.20;;;;;;5010602;28;19909;-72
2024/04/07 09:51:26;;;;;;;;;;;22.90;99.10;;;;;;5009853;28;19931;-71
2024/04/07 09:53:52;;;;;;;;;;;22.90;98.90;;;;;;5010622;28;19909;-72
2024/04/07 09:56:22;;;;;;;;;;;22.70;98.80;;;;;;5004000;28;20307;-72
2024/04/07 09:58:48;;;;;;;;;;;22.50;99.30;;;;;;5004704;28;20436;-71
2024/04/07 10:01:13;;;;;;;;;;;22.40;99.20;;;;;;5002380;28;19946;-72
2024/04/07 10:03:39;;;;;;;;;;;22.40;99.10;;;;;;4990619;28;20004;-72
2024/04/07 10:06:04;;;;;;;;;;;22.40;99.60;;;;;;4990244;28;20369;-72
2024/04/07 10:08:31;;;;;;;;;;;22.60;99.80;;;;;;4990124;28;19910;-71
2024/04/07 10:10:56;;;;;;;;;;;22.90;99.20;;;;;;4991416;28;20401;-71
2024/04/07 10:13:23;;;;;;;;;;;23.00;98.90;;;;;;4988656;28;20016;-71
2024/04/07 10:15:49;;;;;;;;;;;23.30;98.20;;;;;;4989527;28;19956;-72
2024/04/07 10:18:18;;;;;;;;;;;23.30;98.00;;;;;;4990113;28;19910;-71
2024/04/07 10:20:49;;;;;;;;;;;23.10;98.50;;;;;;4989756;28;19910;-71
2024/04/07 10:23:14;;;;;;;;;;;23.00;97.40;;;;;;4989991;28;19918;-71
2024/04/07 10:25:49;;;;;;;;;;;22.90;96.30;;;;;;4990383;28;19994;-71
2024/04/07 10:28:15;;;;;;;;;;;22.70;96.60;;;;;;4991773;28;19910;-70
2024/04/07 10:30:51;;;;;;;;;;;22.50;97.00;;;;;;4990275;28;19914;-72
2024/04/07 10:33:19;;;;;;;;;;;22.40;97.20;;;;;;5009849;28;20265;-71
2024/04/07 10:35:52;;;;;;;;;;;22.30;97.00;;;;;;5009529;28;19909;-72
2024/04/07 10:38:17;;;;;;;;;;;22.20;97.50;;;;;;4985784;28;19920;-71
2024/04/07 10:40:43;;;;;;;;;;;22.10;97.50;;;;;;5008126;28;19921;-71
2024/04/07 10:43:09;;;;;;;;;;;22.10;97.50;;;;;;5010819;28;19910;-71
2024/04/07 10:45:34;;;;;;;;;;;22.10;97.80;;;;;;4996773;28;19924;-71
2024/04/07 10:48:00;;;;;;;;;;;22.10;97.50;;;;;;4996278;28;19941;-72
2024/04/07 10:50:26;;;;;;;;;;;22.10;97.50;;;;;;5009760;28;19918;-71
2024/04/07 10:52:58;;;;;;;;;;;22.10;96.80;;;;;;5008998;28;19916;-71
2024/04/07 10:55:25;;;;;;;;;;;22.10;97.30;;;;;;5008250;28;20307;-71
2024/04/07 10:57:52;;;;;;;;;;;22.00;97.40;;;;;;5010141;28;19916;-71
2024/04/07 11:00:18;;;;;;;;;;;22.10;96.90;;;;;;5006991;28;20380;-72
2024/04/07 11:02:43;;;;;;;;;;;22.10;97.00;;;;;;4990043;28;19910;-71
2024/04/07 11:05:11;;;;;;;;;;;22.10;97.10;;;;;;4990528;28;20013;-71
2024/04/07 11:07:37;;;;;;;;;;;22.20;96.20;;;;;;4990106;28;19971;-71
2024/04/07 11:10:04;;;;;;;;;;;22.20;96.50;;;;;;4988917;28;19914;-71
2024/04/07 11:12:30;;;;;;;;;;;22.20;96.60;;;;;;4989666;28;20369;-73
2024/04/07 11:14:55;;;;;;;;;;;22.00;97.00;;;;;;4989229;28;19936;-72
2024/04/07 11:17:21;;;;;;;;;;;22.10;96.80;;;;;;4990543;28;19910;-73
2024/04/07 11:19:47;;;;;;;;;;;22.10;95.80;;;;;;4989396;28;19952;-72
2024/04/07 11:22:13;;;;;;;;;;;22.00;96.00;;;;;;4990844;28;19922;-72
2024/04/07 11:24:38;;;;;;;;;;;21.90;95.10;;;;;;5002621;28;19921;-73
2024/04/07 11:27:05;;;;;;;;;;;22.00;95.20;;;;;;5001710;28;19910;-72
2024/04/07 11:29:31;;;;;;;;;;;22.00;95.70;;;;;;4992709;28;19914;-73
2024/04/07 11:31:57;;;;;;;;;;;22.00;95.10;;;;;;5003535;28;20368;-73
2024/04/07 11:34:24;;;;;;;;;;;22.10;95.00;;;;;;5007781;28;19920;-72
2024/04/07 11:36:50;;;;;;;;;;;22.10;94.10;;;;;;5002906;28;19920;-70
2024/04/07 11:39:15;;;;;;;;;;;22.00;95.80;;;;;;5007971;28;19909;-73
2024/04/07 11:41:41;;;;;;;;;;;22.00;95.80;;;;;;5008172;28;19910;-71
2024/04/07 11:44:07;;;;;;;;;;;22.10;95.50;;;;;;5007882;28;19913;-71
2024/04/07 11:46:32;;;;;;;;;;;22.30;95.40;;;;;;5009203;28;19921;-71
2024/04/07 11:48:58;;;;;;;;;;;22.40;95.10;;;;;;5007325;28;20000;-72
2024/04/07 11:51:24;;;;;;;;;;;22.30;94.80;;;;;;5001814;28;19910;-71
2024/04/07 11:53:49;;;;;;;;;;;22.30;95.80;;;;;;5002973;28;19964;-70
2024/04/07 11:56:17;;;;;;;;;;;22.20;95.70;;;;;;5009127;28;20364;-71
2024/04/07 11:58:42;;;;;;;;;;;22.30;95.10;;;;;;5006688;28;20300;-73
2024/04/07 12:01:09;;;;;;;;;;;22.40;95.00;;;;;;5000808;28;19931;-70
2024/04/07 12:03:34;;;;;;;;;;;22.30;95.20;;;;;;5003466;28;19951;-70
2024/04/07 12:06:00;;;;;;;;;;;22.30;95.30;;;;;;5004996;28;19909;-71
2024/04/07 12:08:25;;;;;;;;;;;22.20;95.70;;;;;;4997152;28;19913;-71
2024/04/07 12:10:51;;;;;;;;;;;22.30;95.00;;;;;;5008384;28;19917;-71
2024/04/07 12:13:16;;;;;;;;;;;22.40;95.30;;;;;;5005667;28;20287;-71
2024/04/07 12:15:42;;;;;;;;;;;22.40;95.20;;;;;;5006780;28;19975;-70
2024/04/07 12:18:07;;;;;;;;;;;22.40;95.50;;;;;;5007250;28;19909;-70
2024/04/07 12:20:33;;;;;;;;;;;22.40;95.20;;;;;;5007991;28;19974;-71
2024/04/07 12:22:58;;;;;;;;;;;22.70;94.80;;;;;;5005773;28;19953;-70
2024/04/07 12:25:25;;;;;;;;;;;22.90;95.00;;;;;;4994732;28;19968;-70
2024/04/07 12:27:51;;;;;;;;;;;23.10;94.50;;;;;;5007661;28;20347;-70
2024/04/07 12:30:16;;;;;;;;;;;23.20;94.00;;;;;;5006339;28;19941;-70
2024/04/07 12:32:42;;;;;;;;;;;23.30;94.20;;;;;;5007490;28;20009;-70
2024/04/07 12:35:07;;;;;;;;;;;23.40;92.90;;;;;;5008121;28;19910;-70
2024/04/07 12:37:33;;;;;;;;;;;23.40;92.30;;;;;;5007595;28;19936;-69
2024/04/07 12:39:58;;;;;;;;;;;23.20;92.70;;;;;;5011195;28;19939;-71
2024/04/07 12:42:26;;;;;;;;;;;23.30;92.20;;;;;;4984831;28;19962;-69
2024/04/07 12:44:51;;;;;;;;;;;23.30;92.80;;;;;;5009939;28;19944;-70
2024/04/07 12:47:22;;;;;;;;;;;23.20;92.40;;;;;;5010520;28;19909;-70
2024/04/07 12:49:48;;;;;;;;;;;23.00;92.90;;;;;;5010318;28;19914;-70
2024/04/07 12:52:14;;;;;;;;;;;22.80;92.40;;;;;;5007740;28;20448;-70
2024/04/07 12:54:39;;;;;;;;;;;22.70;92.70;;;;;;5011660;28;19913;-71
2024/04/07 12:57:05;;;;;;;;;;;22.60;93.80;;;;;;5002963;28;20382;-70
2024/04/07 12:59:31;;;;;;;;;;;22.70;93.00;;;;;;5009824;28;20408;-70
2024/04/07 13:01:56;;;;;;;;;;;22.90;92.50;;;;;;4997207;28;20311;-69
2024/04/07 13:04:22;;;;;;;;;;;22.80;92.90;;;;;;5002567;28;19914;-69
2024/04/07 13:06:47;;;;;;;;;;;22.70;93.20;;;;;;4996206;28;19960;-70
2024/04/07 13:09:12;;;;;;;;;;;22.90;92.70;;;;;;5004386;28;19923;-71
2024/04/07 13:11:38;;;;;;;;;;;23.10;93.10;;;;;;4999206;28;20039;-69
2024/04/07 13:14:04;;;;;;;;;;;23.00;93.70;;;;;;4994044;28;19913;-70
2024/04/07 13:16:29;;;;;;;;;;;23.00;94.40;;;;;;4993088;28;19917;-70
2024/04/07 13:18:55;;;;;;;;;;;23.00;92.80;;;;;;4991168;28;19910;-70
2024/04/07 13:21:20;;;;;;;;;;;23.00;91.90;;;;;;5005694;28;19910;-70
2024/04/07 13:23:46;;;;;;;;;;;23.00;91.90;;;;;;5004710;28;20423;-70
2024/04/07 13:26:11;;;;;;;;;;;23.00;91.80;;;;;;5005557;28;19909;-70
2024/04/07 13:28:37;;;;;;;;;;;23.20;91.90;;;;;;5007750;28;19910;-70
2024/04/07 13:31:03;;;;;;;;;;;23.20;91.60;;;;;;4999467;28;19917;-70
2024/04/07 13:33:29;;;;;;;;;;;23.40;91.10;;;;;;5011618;28;19909;-70
2024/04/07 13:35:54;;;;;;;;;;;23.50;90.70;;;;;;5009007;28;19959;-69
2024/04/07 13:38:20;;;;;;;;;;;23.50;90.80;;;;;;5011075;28;19948;-70
2024/04/07 13:40:53;;;;;;;;;;;23.50;91.30;;;;;;5009587;28;19910;-70
2024/04/07 13:43:19;;;;;;;;;;;23.50;91.50;;;;;;5011234;28;19910;-70
2024/04/07 13:45:44;;;;;;;;;;;23.60;90.90;;;;;;5010434;28;19914;-70
2024/04/07 13:48:09;;;;;;;;;;;23.70;90.50;;;;;;4999579;28;20381;-71
2024/04/07 13:50:35;;;;;;;;;;;23.70;90.50;;;;;;5009764;28;19964;-70
2024/04/07 13:53:03;;;;;;;;;;;23.90;90.40;;;;;;5009571;28;19914;-71
2024/04/07 13:55:29;;;;;;;;;;;23.90;90.70;;;;;;5008842;28;20000;-70
2024/04/07 13:57:55;;;;;;;;;;;23.80;90.90;;;;;;5011127;28;19955;-70
2024/04/07 14:00:20;;;;;;;;;;;23.70;91.00;;;;;;5007545;28;20070;-71
2024/04/07 14:02:47;;;;;;;;;;;23.60;91.30;;;;;;4993722;28;19914;-71
2024/04/07 14:05:12;;;;;;;;;;;23.50;90.90;;;;;;5003024;28;19918;-70
2024/04/07 14:07:38;;;;;;;;;;;23.70;90.60;;;;;;4991627;28;19917;-71
2024/04/07 14:10:04;;;;;;;;;;;23.80;90.20;;;;;;4990112;28;19921;-70
2024/04/07 14:12:30;;;;;;;;;;;23.80;89.90;;;;;;4991748;28;19913;-70